Time;durP1;ratioP1;P1;durP2;ratioP2;P2;SDS_P1;SDS_P2;PMS_P1;PMS_P2;Temp;Humidity;BMP_temperature;BMP_pressure;BME280_temperature;BME280_humidity;BME280_pressure;Samples;Min_cycle;Max_cycle;Signal;HPM_P1;HPM_P2
2021/12/28 00:01:14;;;;;;;10.50;8.53;;;;;;;;;;5018559;28;20219;-58
2021/12/28 00:03:42;;;;;;;9.33;8.40;;;;;;;;;;5002169;28;20280;-57
2021/12/28 00:06:07;;;;;;;9.53;8.57;;;;;;;;;;5002817;28;20236;-57
2021/12/28 00:08:34;;;;;;;10.30;8.03;;;;;;;;;;5004667;28;20228;-57
2021/12/28 00:11:00;;;;;;;11.40;8.60;;;;;;;;;;5007255;28;20245;-57
2021/12/28 00:13:26;;;;;;;9.53;8.47;;;;;;;;;;5003776;28;20770;-57
2021/12/28 00:18:21;;;;;;;10.37;8.43;;;;;;;;;;5002224;28;20247;-57
2021/12/28 00:20:49;;;;;;;9.77;8.63;;;;;;;;;;5013975;28;20232;-57
2021/12/28 00:23:19;;;;;;;10.00;8.37;;;;;;;;;;5020733;28;20232;-57
2021/12/28 00:25:46;;;;;;;9.77;8.77;;;;;;;;;;5004134;28;20247;-57
2021/12/28 00:28:12;;;;;;;9.03;8.10;;;;;;;;;;5011163;28;20233;-57
2021/12/28 00:30:37;;;;;;;10.13;8.47;;;;;;;;;;4995034;28;20240;-57
2021/12/28 00:33:04;;;;;;;10.00;8.30;;;;;;;;;;4999746;28;20235;-57
2021/12/28 00:35:31;;;;;;;10.73;8.30;;;;;;;;;;5013587;28;20232;-57
2021/12/28 00:37:57;;;;;;;10.90;8.57;;;;;;;;;;5016871;28;20735;-57
2021/12/28 00:40:23;;;;;;;11.27;8.47;;;;;;;;;;5010161;28;20267;-57
2021/12/28 00:42:49;;;;;;;9.60;8.60;;;;;;;;;;5005281;28;20744;-57
2021/12/28 00:45:15;;;;;;;9.73;8.37;;;;;;;;;;5009351;28;20240;-57
2021/12/28 00:47:41;;;;;;;10.10;7.67;;;;;;;;;;5012084;28;20322;-57
2021/12/28 00:50:08;;;;;;;9.00;8.07;;;;;;;;;;5009507;28;20255;-57
2021/12/28 00:52:34;;;;;;;10.27;8.40;;;;;;;;;;5008471;28;20376;-58
2021/12/28 00:55:00;;;;;;;10.10;8.37;;;;;;;;;;5016100;28;20232;-57
2021/12/28 00:57:26;;;;;;;8.83;7.93;;;;;;;;;;5004987;28;20236;-57
2021/12/28 00:59:52;;;;;;;9.17;8.20;;;;;;;;;;4998676;28;20278;-57
2021/12/28 01:02:18;;;;;;;9.73;8.10;;;;;;;;;;4998651;28;20242;-57
2021/12/28 01:04:44;;;;;;;9.97;8.60;;;;;;;;;;5008580;28;20793;-58
2021/12/28 01:07:10;;;;;;;10.20;8.00;;;;;;;;;;5010011;28;20232;-57
2021/12/28 01:09:36;;;;;;;10.87;8.10;;;;;;;;;;5004574;28;20239;-57
2021/12/28 01:12:03;;;;;;;9.40;8.10;;;;;;;;;;4992483;28;20283;-57
2021/12/28 01:14:29;;;;;;;9.47;7.53;;;;;;;;;;5000228;28;20233;-57
2021/12/28 01:16:55;;;;;;;10.10;7.33;;;;;;;;;;4996511;28;20240;-57
2021/12/28 01:19:21;;;;;;;13.30;8.10;;;;;;;;;;5012620;28;20241;-57
2021/12/28 01:21:47;;;;;;;12.30;8.23;;;;;;;;;;5000954;28;20864;-58
2021/12/28 01:24:13;;;;;;;10.27;8.23;;;;;;;;;;5007018;28;20867;-57
2021/12/28 01:26:39;;;;;;;10.67;8.13;;;;;;;;;;5011080;28;20231;-57
2021/12/28 01:29:05;;;;;;;11.63;7.97;;;;;;;;;;5001853;28;20241;-57
2021/12/28 01:31:31;;;;;;;10.50;7.70;;;;;;;;;;5009288;28;20319;-57
2021/12/28 01:33:57;;;;;;;9.23;7.60;;;;;;;;;;5007935;28;20232;-57
2021/12/28 01:36:23;;;;;;;9.70;8.17;;;;;;;;;;5010208;28;20286;-57
2021/12/28 01:38:49;;;;;;;11.33;8.13;;;;;;;;;;5007489;28;20728;-57
2021/12/28 01:41:15;;;;;;;12.43;7.70;;;;;;;;;;5007750;28;20228;-57
2021/12/28 01:43:43;;;;;;;9.43;7.57;;;;;;;;;;5009936;28;20641;-57
2021/12/28 01:46:09;;;;;;;11.67;6.90;;;;;;;;;;5009744;28;20641;-57
2021/12/28 01:48:39;;;;;;;10.10;7.07;;;;;;;;;;5009530;28;20294;-57
2021/12/28 01:51:06;;;;;;;8.87;6.47;;;;;;;;;;5005370;28;20244;-57
2021/12/28 01:53:32;;;;;;;12.47;6.73;;;;;;;;;;5001802;28;20327;-57
2021/12/28 01:55:59;;;;;;;11.07;7.63;;;;;;;;;;5001403;28;20236;-57
2021/12/28 01:58:25;;;;;;;8.50;6.57;;;;;;;;;;5006153;28;20233;-57
2021/12/28 02:00:51;;;;;;;10.13;6.97;;;;;;;;;;5008693;28;20234;-57
2021/12/28 02:03:18;;;;;;;9.40;6.47;;;;;;;;;;5014775;28;20247;-57
2021/12/28 02:05:44;;;;;;;12.40;6.80;;;;;;;;;;5011545;28;20631;-57
2021/12/28 02:08:12;;;;;;;10.10;6.30;;;;;;;;;;5006436;28;20461;-57
2021/12/28 02:10:38;;;;;;;11.40;6.63;;;;;;;;;;4998318;28;20232;-57
2021/12/28 02:13:05;;;;;;;10.47;6.40;;;;;;;;;;5002392;28;20230;-57
2021/12/28 02:15:31;;;;;;;12.13;6.20;;;;;;;;;;4995982;28;20225;-57
2021/12/28 02:17:57;;;;;;;12.93;6.47;;;;;;;;;;5009718;28;20228;-57
2021/12/28 02:20:23;;;;;;;12.63;6.70;;;;;;;;;;5013416;28;20231;-57
2021/12/28 02:22:49;;;;;;;9.97;5.70;;;;;;;;;;5012305;28;20236;-57
2021/12/28 02:25:15;;;;;;;9.10;6.23;;;;;;;;;;4993806;28;20247;-57
2021/12/28 02:27:41;;;;;;;12.57;6.33;;;;;;;;;;5005104;28;20320;-57
2021/12/28 02:30:08;;;;;;;10.30;5.70;;;;;;;;;;5003868;28;20235;-57
2021/12/28 02:32:34;;;;;;;12.43;6.30;;;;;;;;;;5000854;28;20688;-57
2021/12/28 02:35:00;;;;;;;12.33;6.43;;;;;;;;;;5001526;28;20850;-57
2021/12/28 02:37:26;;;;;;;15.10;6.70;;;;;;;;;;5013573;28;20239;-57
2021/12/28 02:39:52;;;;;;;11.57;5.80;;;;;;;;;;5011662;28;20267;-57
2021/12/28 02:42:19;;;;;;;13.13;5.90;;;;;;;;;;5007163;28;21776;-57
2021/12/28 02:44:45;;;;;;;14.73;6.47;;;;;;;;;;5006241;28;20225;-57
2021/12/28 02:47:15;;;;;;;12.67;5.70;;;;;;;;;;5004556;28;20232;-58
2021/12/28 02:49:41;;;;;;;12.97;6.33;;;;;;;;;;5008039;28;20231;-57
2021/12/28 02:52:09;;;;;;;12.33;6.93;;;;;;;;;;5009695;28;20237;-57
2021/12/28 02:54:36;;;;;;;13.40;6.47;;;;;;;;;;5018034;28;20232;-57
2021/12/28 02:57:02;;;;;;;16.47;6.37;;;;;;;;;;5004165;28;20582;-57
2021/12/28 02:59:28;;;;;;;13.87;6.20;;;;;;;;;;5009967;28;20228;-58
2021/12/28 03:01:54;;;;;;;11.87;6.23;;;;;;;;;;5012231;28;20252;-58
2021/12/28 03:04:23;;;;;;;16.13;6.20;;;;;;;;;;5005450;28;20235;-57
2021/12/28 03:06:49;;;;;;;15.67;6.60;;;;;;;;;;5007213;28;20260;-57
2021/12/28 03:09:18;;;;;;;15.60;6.40;;;;;;;;;;4985448;28;20701;-57
2021/12/28 03:11:44;;;;;;;14.53;6.27;;;;;;;;;;4999640;28;20244;-58
2021/12/28 03:14:10;;;;;;;18.43;6.83;;;;;;;;;;5001324;28;20231;-57
2021/12/28 03:16:36;;;;;;;12.40;5.50;;;;;;;;;;5015487;28;20235;-57
2021/12/28 03:19:03;;;;;;;12.80;6.50;;;;;;;;;;5002915;28;20270;-57
2021/12/28 03:21:30;;;;;;;17.87;5.97;;;;;;;;;;5006261;28;20931;-57
2021/12/28 03:23:56;;;;;;;15.40;6.33;;;;;;;;;;5004983;28;20307;-58
2021/12/28 03:26:22;;;;;;;9.23;5.40;;;;;;;;;;5003558;28;20252;-57
2021/12/28 03:28:48;;;;;;;14.57;5.90;;;;;;;;;;5005780;28;20227;-57
2021/12/28 03:31:15;;;;;;;15.60;5.80;;;;;;;;;;5009144;28;20241;-57
2021/12/28 03:33:42;;;;;;;10.00;5.47;;;;;;;;;;5003394;28;20233;-57
2021/12/28 03:36:07;;;;;;;17.10;5.90;;;;;;;;;;5003334;28;21061;-57
2021/12/28 03:38:34;;;;;;;16.50;5.87;;;;;;;;;;5005717;28;20231;-57
2021/12/28 03:41:00;;;;;;;16.03;5.20;;;;;;;;;;5004163;28;20476;-57
2021/12/28 03:43:26;;;;;;;16.50;5.87;;;;;;;;;;5012809;28;20863;-57
2021/12/28 03:45:52;;;;;;;15.27;6.83;;;;;;;;;;5015554;28;20270;-57
2021/12/28 03:48:18;;;;;;;12.77;5.37;;;;;;;;;;5003016;28;20229;-57
2021/12/28 03:50:44;;;;;;;12.87;5.50;;;;;;;;;;4998862;28;20241;-58
2021/12/28 03:53:10;;;;;;;17.73;6.20;;;;;;;;;;5001392;28;20255;-58
2021/12/28 03:55:36;;;;;;;16.93;5.67;;;;;;;;;;5001098;28;20378;-57
2021/12/28 03:58:02;;;;;;;17.53;5.40;;;;;;;;;;4995272;28;20236;-57
2021/12/28 04:00:31;;;;;;;21.90;5.50;;;;;;;;;;5001969;28;20228;-57
2021/12/28 04:02:57;;;;;;;18.13;6.37;;;;;;;;;;5003013;28;20323;-57
2021/12/28 04:05:23;;;;;;;13.83;5.40;;;;;;;;;;5011509;28;20706;-58
2021/12/28 04:07:49;;;;;;;17.67;5.57;;;;;;;;;;5008912;28;20224;-58
2021/12/28 04:10:16;;;;;;;16.67;5.77;;;;;;;;;;5016603;28;20318;-57
2021/12/28 04:12:42;;;;;;;15.87;5.67;;;;;;;;;;5009416;28;21009;-57
2021/12/28 04:15:09;;;;;;;15.97;5.27;;;;;;;;;;5014152;28;20793;-57
2021/12/28 04:17:37;;;;;;;14.43;5.43;;;;;;;;;;5020490;28;20228;-57
2021/12/28 04:20:07;;;;;;;15.37;5.90;;;;;;;;;;5015965;28;20792;-57
2021/12/28 04:22:33;;;;;;;11.83;5.33;;;;;;;;;;5025184;28;20625;-58
2021/12/28 04:24:59;;;;;;;19.10;5.53;;;;;;;;;;5021272;28;20232;-58
2021/12/28 04:27:25;;;;;;;21.10;6.00;;;;;;;;;;5017806;28;20459;-57
2021/12/28 04:29:51;;;;;;;13.87;5.17;;;;;;;;;;5019455;28;20357;-58
2021/12/28 04:32:17;;;;;;;22.57;5.57;;;;;;;;;;5011725;28;20240;-57
2021/12/28 04:34:43;;;;;;;17.03;5.40;;;;;;;;;;5008943;28;20963;-57
2021/12/28 04:37:09;;;;;;;15.70;5.77;;;;;;;;;;5003155;28;20713;-57
2021/12/28 04:39:35;;;;;;;19.43;5.93;;;;;;;;;;5001745;28;20232;-58
2021/12/28 04:42:01;;;;;;;16.90;5.97;;;;;;;;;;5011726;28;20324;-57
2021/12/28 04:44:27;;;;;;;23.30;5.40;;;;;;;;;;5020212;28;20221;-57
2021/12/28 04:46:53;;;;;;;23.17;5.87;;;;;;;;;;5007315;28;20272;-58
2021/12/28 04:49:21;;;;;;;19.40;5.70;;;;;;;;;;4995434;28;20370;-57
2021/12/28 04:51:47;;;;;;;20.53;5.63;;;;;;;;;;5000681;28;20240;-58
2021/12/28 04:54:14;;;;;;;20.33;5.80;;;;;;;;;;5001186;28;20987;-58
2021/12/28 04:56:40;;;;;;;17.63;5.47;;;;;;;;;;5013975;28;20382;-58
2021/12/28 04:59:06;;;;;;;23.93;6.03;;;;;;;;;;5011794;28;20326;-58
2021/12/28 05:01:32;;;;;;;17.87;5.63;;;;;;;;;;5002336;28;20259;-58
2021/12/28 05:03:58;;;;;;;17.47;5.77;;;;;;;;;;5010341;28;20782;-57
2021/12/28 05:06:24;;;;;;;22.33;5.67;;;;;;;;;;5012826;28;20559;-57
2021/12/28 05:08:50;;;;;;;19.73;5.80;;;;;;;;;;5010865;28;20266;-57
2021/12/28 05:11:16;;;;;;;18.67;5.50;;;;;;;;;;5010402;28;20243;-57
2021/12/28 05:13:44;;;;;;;17.27;5.67;;;;;;;;;;5013147;28;20711;-57
2021/12/28 05:16:14;;;;;;;17.70;5.27;;;;;;;;;;5009450;28;20755;-57
2021/12/28 05:18:40;;;;;;;20.43;5.30;;;;;;;;;;5017277;28;20228;-57
2021/12/28 05:21:06;;;;;;;17.50;5.40;;;;;;;;;;5004618;28;20232;-58
2021/12/28 05:23:31;;;;;;;20.80;5.63;;;;;;;;;;5000452;28;20224;-57
2021/12/28 05:25:57;;;;;;;17.40;5.20;;;;;;;;;;4992682;28;20231;-57
2021/12/28 05:28:25;;;;;;;18.07;4.97;;;;;;;;;;4999117;28;20235;-57
2021/12/28 05:30:51;;;;;;;18.47;5.43;;;;;;;;;;5001460;28;20247;-58
2021/12/28 05:33:17;;;;;;;22.90;5.30;;;;;;;;;;5005361;28;20227;-58
2021/12/28 05:35:43;;;;;;;17.60;5.43;;;;;;;;;;5000934;28;20282;-57
2021/12/28 05:38:09;;;;;;;19.30;5.10;;;;;;;;;;4982278;28;20228;-57
2021/12/28 05:40:35;;;;;;;15.37;5.07;;;;;;;;;;4987621;28;20244;-58
2021/12/28 05:43:01;;;;;;;22.23;5.63;;;;;;;;;;5011218;28;22412;-57
2021/12/28 05:45:27;;;;;;;18.30;5.00;;;;;;;;;;5010384;28;20718;-57
2021/12/28 05:47:53;;;;;;;16.37;5.27;;;;;;;;;;5005027;28;20860;-57
2021/12/28 05:50:19;;;;;;;14.17;5.13;;;;;;;;;;5018227;28;20236;-57
2021/12/28 05:52:45;;;;;;;21.63;5.53;;;;;;;;;;5004517;28;20590;-58
2021/12/28 05:55:11;;;;;;;18.40;5.50;;;;;;;;;;5022023;28;20259;-57
2021/12/28 05:57:37;;;;;;;21.50;5.57;;;;;;;;;;5013604;28;20235;-57
2021/12/28 06:00:04;;;;;;;19.83;5.60;;;;;;;;;;5012175;28;20431;-57
2021/12/28 06:02:30;;;;;;;16.57;5.17;;;;;;;;;;5008456;28;20277;-57
2021/12/28 06:04:56;;;;;;;21.17;6.07;;;;;;;;;;5016313;28;20618;-57
2021/12/28 06:07:27;;;;;;;25.17;6.40;;;;;;;;;;5019778;28;22638;-57
2021/12/28 06:09:52;;;;;;;18.13;5.80;;;;;;;;;;5015064;28;20241;-58
2021/12/28 06:12:18;;;;;;;21.07;5.73;;;;;;;;;;5014195;28;20414;-57
2021/12/28 06:14:44;;;;;;;16.73;5.73;;;;;;;;;;5017928;28;20227;-57
2021/12/28 06:17:10;;;;;;;19.73;5.87;;;;;;;;;;5014111;28;20236;-57
2021/12/28 06:19:36;;;;;;;19.63;6.67;;;;;;;;;;5014468;28;20234;-58
2021/12/28 06:22:02;;;;;;;22.07;6.30;;;;;;;;;;5010340;28;20315;-57
2021/12/28 06:24:28;;;;;;;21.53;6.77;;;;;;;;;;5012613;28;20705;-57
2021/12/28 06:26:54;;;;;;;23.47;7.03;;;;;;;;;;5015265;28;20293;-57
2021/12/28 06:29:20;;;;;;;20.20;6.67;;;;;;;;;;5016981;28;20220;-57
2021/12/28 06:31:46;;;;;;;17.27;6.03;;;;;;;;;;5018738;28;22190;-58
2021/12/28 06:34:12;;;;;;;16.07;6.43;;;;;;;;;;5019958;28;20227;-57
2021/12/28 06:36:38;;;;;;;19.30;6.47;;;;;;;;;;5006341;28;21018;-58
2021/12/28 06:39:04;;;;;;;14.53;6.13;;;;;;;;;;5021057;28;20243;-57
2021/12/28 06:41:30;;;;;;;22.77;7.33;;;;;;;;;;5013780;28;20230;-57
2021/12/28 06:43:56;;;;;;;16.63;7.23;;;;;;;;;;5002206;28;20232;-58
2021/12/28 06:46:22;;;;;;;19.00;6.77;;;;;;;;;;5012460;28;20227;-58
2021/12/28 06:48:48;;;;;;;18.73;7.30;;;;;;;;;;5007396;28;20434;-57
2021/12/28 06:51:14;;;;;;;21.63;7.33;;;;;;;;;;5007910;28;20240;-58
2021/12/28 06:53:40;;;;;;;24.00;8.13;;;;;;;;;;5006651;28;20379;-58
2021/12/28 06:56:06;;;;;;;22.73;8.60;;;;;;;;;;4999996;28;20236;-58
2021/12/28 06:58:32;;;;;;;27.50;8.17;;;;;;;;;;5005852;28;20236;-58
2021/12/28 07:00:58;;;;;;;18.70;7.70;;;;;;;;;;5005005;28;20288;-57
2021/12/28 07:03:24;;;;;;;25.63;9.10;;;;;;;;;;5006867;28;20240;-57
2021/12/28 07:05:50;;;;;;;19.87;7.87;;;;;;;;;;5012937;28;20299;-58
2021/12/28 07:08:16;;;;;;;21.53;8.17;;;;;;;;;;5016891;28;20237;-57
2021/12/28 07:10:43;;;;;;;19.43;7.93;;;;;;;;;;5012731;28;20777;-57
2021/12/28 07:13:09;;;;;;;20.13;8.47;;;;;;;;;;5009248;28;21331;-57
2021/12/28 07:15:35;;;;;;;17.23;8.10;;;;;;;;;;5021245;28;20301;-57
2021/12/28 07:18:01;;;;;;;19.03;8.23;;;;;;;;;;5005990;28;20834;-58
2021/12/28 07:20:27;;;;;;;16.57;7.43;;;;;;;;;;5015064;28;20229;-58
2021/12/28 07:22:53;;;;;;;13.03;7.50;;;;;;;;;;5010461;28;20781;-57
2021/12/28 07:25:19;;;;;;;20.13;7.67;;;;;;;;;;5005985;28;20250;-57
2021/12/28 07:27:45;;;;;;;19.70;7.67;;;;;;;;;;5010107;28;20235;-57
2021/12/28 07:30:11;;;;;;;16.87;8.10;;;;;;;;;;5013759;28;21122;-58
2021/12/28 07:32:37;;;;;;;26.77;7.93;;;;;;;;;;5001718;28;20362;-57
2021/12/28 07:35:03;;;;;;;18.87;7.77;;;;;;;;;;5007914;28;20255;-57
2021/12/28 07:37:29;;;;;;;22.77;8.33;;;;;;;;;;5014976;28;20237;-57
2021/12/28 07:39:55;;;;;;;16.53;7.23;;;;;;;;;;5019315;28;20228;-58
2021/12/28 07:42:21;;;;;;;13.67;6.93;;;;;;;;;;5014121;28;20662;-57
2021/12/28 07:44:49;;;;;;;18.13;7.17;;;;;;;;;;5012205;28;20232;-58
2021/12/28 07:47:15;;;;;;;20.67;7.07;;;;;;;;;;5011073;28;20320;-58
2021/12/28 07:49:41;;;;;;;12.83;6.63;;;;;;;;;;5016794;28;20228;-57
2021/12/28 07:52:06;;;;;;;19.20;7.13;;;;;;;;;;5007082;28;20445;-57
2021/12/28 07:54:32;;;;;;;18.73;7.17;;;;;;;;;;5018117;28;20315;-57
2021/12/28 07:56:58;;;;;;;13.07;7.07;;;;;;;;;;5019579;28;20671;-57
2021/12/28 07:59:24;;;;;;;15.30;6.43;;;;;;;;;;5019523;28;20311;-57
2021/12/28 08:01:50;;;;;;;17.80;7.63;;;;;;;;;;5023356;28;20242;-57
2021/12/28 08:04:16;;;;;;;15.23;7.37;;;;;;;;;;5019743;28;20236;-57
2021/12/28 08:06:42;;;;;;;19.30;8.23;;;;;;;;;;5019201;28;20304;-57
2021/12/28 08:09:08;;;;;;;16.97;7.20;;;;;;;;;;5023883;28;20265;-58
2021/12/28 08:11:34;;;;;;;13.50;6.77;;;;;;;;;;5020570;28;20243;-57
2021/12/28 08:14:01;;;;;;;18.77;6.90;;;;;;;;;;5015045;28;20240;-58
2021/12/28 08:16:27;;;;;;;16.77;7.00;;;;;;;;;;5017868;28;20313;-57
2021/12/28 08:18:52;;;;;;;15.77;7.13;;;;;;;;;;4986636;28;1053255;-57
2021/12/28 08:21:19;;;;;;;15.50;6.70;;;;;;;;;;4998141;28;20232;-58
2021/12/28 08:23:45;;;;;;;18.63;6.90;;;;;;;;;;4995808;28;20315;-57
2021/12/28 08:26:11;;;;;;;18.83;6.30;;;;;;;;;;5000306;28;20228;-57
2021/12/28 08:28:37;;;;;;;12.63;6.50;;;;;;;;;;5000887;28;20862;-57
2021/12/28 08:31:03;;;;;;;13.57;6.37;;;;;;;;;;5002406;28;20232;-58
2021/12/28 08:33:29;;;;;;;14.37;5.87;;;;;;;;;;4992095;28;20233;-58
2021/12/28 08:35:56;;;;;;;16.33;6.63;;;;;;;;;;5003536;28;20778;-57
2021/12/28 08:38:22;;;;;;;12.23;6.40;;;;;;;;;;4997731;28;20232;-57
2021/12/28 08:40:48;;;;;;;12.37;5.70;;;;;;;;;;4997700;28;20591;-57
2021/12/28 08:43:14;;;;;;;15.27;6.27;;;;;;;;;;5004931;28;20244;-57
2021/12/28 08:45:40;;;;;;;14.07;6.10;;;;;;;;;;5002873;28;20601;-58
2021/12/28 08:48:07;;;;;;;18.50;6.73;;;;;;;;;;5000450;28;20258;-57
2021/12/28 08:50:33;;;;;;;15.70;6.03;;;;;;;;;;5004426;28;20848;-57
2021/12/28 08:52:59;;;;;;;18.07;6.13;;;;;;;;;;5007100;28;20910;-57
2021/12/28 08:55:25;;;;;;;11.23;5.57;;;;;;;;;;5014407;28;20258;-58
2021/12/28 08:57:51;;;;;;;12.90;5.60;;;;;;;;;;5001974;28;20282;-57
2021/12/28 09:00:22;;;;;;;14.43;5.57;;;;;;;;;;5000245;28;20239;-58
2021/12/28 09:02:48;;;;;;;15.57;6.37;;;;;;;;;;4988973;28;20657;-57
2021/12/28 09:05:14;;;;;;;16.67;5.87;;;;;;;;;;5014239;28;20228;-57
2021/12/28 09:07:40;;;;;;;13.50;6.10;;;;;;;;;;5021730;28;20290;-58
2021/12/28 09:10:06;;;;;;;10.07;4.90;;;;;;;;;;5019408;28;20651;-57
2021/12/28 09:12:32;;;;;;;14.17;5.77;;;;;;;;;;5018624;28;20334;-58
2021/12/28 09:14:58;;;;;;;12.47;5.30;;;;;;;;;;5023641;28;20254;-58
2021/12/28 09:17:24;;;;;;;13.00;5.33;;;;;;;;;;5018895;28;20247;-57
2021/12/28 09:19:50;;;;;;;9.53;5.40;;;;;;;;;;5022278;28;20235;-57
2021/12/28 09:22:16;;;;;;;11.80;5.33;;;;;;;;;;5024222;28;20294;-58
2021/12/28 09:24:42;;;;;;;6.97;4.90;;;;;;;;;;5016429;28;20259;-58
2021/12/28 09:27:08;;;;;;;10.93;5.23;;;;;;;;;;5024833;28;22064;-58
2021/12/28 09:29:35;;;;;;;9.97;4.90;;;;;;;;;;5020528;28;20319;-58
2021/12/28 09:32:02;;;;;;;9.13;4.50;;;;;;;;;;5024403;28;20241;-58
2021/12/28 09:34:28;;;;;;;9.17;4.40;;;;;;;;;;5020031;28;20224;-58
2021/12/28 09:36:54;;;;;;;9.77;4.93;;;;;;;;;;5023170;28;20739;-57
2021/12/28 09:39:22;;;;;;;8.83;4.10;;;;;;;;;;5020739;28;20230;-57
2021/12/28 09:41:52;;;;;;;8.23;4.30;;;;;;;;;;5020247;28;20235;-58
2021/12/28 09:44:18;;;;;;;5.17;3.60;;;;;;;;;;5022796;28;20236;-58
2021/12/28 09:46:44;;;;;;;6.60;3.23;;;;;;;;;;5017530;28;20275;-57
2021/12/28 09:49:10;;;;;;;8.30;3.47;;;;;;;;;;5018961;28;20231;-58
2021/12/28 09:51:35;;;;;;;7.70;3.60;;;;;;;;;;5017744;28;20990;-58
2021/12/28 09:54:01;;;;;;;8.87;4.00;;;;;;;;;;5022952;28;20653;-57
2021/12/28 09:56:27;;;;;;;6.10;3.97;;;;;;;;;;5005279;28;20672;-57
2021/12/28 09:58:53;;;;;;;5.57;3.50;;;;;;;;;;5004779;28;20233;-58
2021/12/28 10:01:20;;;;;;;9.90;3.93;;;;;;;;;;5010294;28;20237;-58
2021/12/28 10:03:46;;;;;;;7.77;3.97;;;;;;;;;;5015490;28;20234;-58
2021/12/28 10:06:22;;;;;;;5.87;3.63;;;;;;;;;;5018486;28;21102;-58
2021/12/28 10:08:49;;;;;;;7.30;3.57;;;;;;;;;;5004411;28;20232;-57
2021/12/28 10:11:15;;;;;;;6.53;3.53;;;;;;;;;;5021368;28;20333;-57
2021/12/28 10:13:41;;;;;;;6.43;3.30;;;;;;;;;;5015207;28;20235;-57
2021/12/28 10:16:07;;;;;;;3.23;2.37;;;;;;;;;;5011025;28;20255;-58
2021/12/28 10:18:33;;;;;;;2.97;2.40;;;;;;;;;;5015900;28;20362;-57
2021/12/28 10:21:00;;;;;;;2.40;2.17;;;;;;;;;;5016687;28;20253;-58
2021/12/28 10:23:27;;;;;;;2.80;2.20;;;;;;;;;;5011412;28;20737;-58
2021/12/28 10:25:54;;;;;;;2.47;2.23;;;;;;;;;;5000722;28;20243;-58
2021/12/28 10:28:21;;;;;;;4.30;2.17;;;;;;;;;;5009732;28;20273;-57
2021/12/28 10:30:48;;;;;;;2.37;1.90;;;;;;;;;;5011656;28;20651;-58
2021/12/28 10:33:18;;;;;;;2.87;2.00;;;;;;;;;;5007431;28;20229;-57
2021/12/28 10:35:46;;;;;;;2.57;1.97;;;;;;;;;;5006635;28;20235;-58
2021/12/28 10:38:13;;;;;;;2.17;1.80;;;;;;;;;;5009216;28;20298;-57
2021/12/28 10:40:43;;;;;;;2.50;1.80;;;;;;;;;;4998071;28;20246;-57
2021/12/28 10:43:10;;;;;;;2.60;1.60;;;;;;;;;;5013025;28;20268;-57
2021/12/28 10:45:46;;;;;;;1.80;1.60;;;;;;;;;;5016080;28;20874;-57
2021/12/28 10:48:12;;;;;;;1.40;1.30;;;;;;;;;;5022496;28;20365;-57
2021/12/28 10:50:43;;;;;;;2.40;1.80;;;;;;;;;;5016862;28;20244;-58
2021/12/28 10:53:16;;;;;;;1.70;1.60;;;;;;;;;;5016481;28;20240;-57
2021/12/28 10:55:43;;;;;;;1.47;1.37;;;;;;;;;;5007476;28;20316;-57
2021/12/28 10:58:11;;;;;;;1.50;1.37;;;;;;;;;;5008137;28;20365;-57
2021/12/28 11:00:38;;;;;;;1.57;1.47;;;;;;;;;;5010526;28;20229;-58
2021/12/28 11:03:16;;;;;;;1.63;1.50;;;;;;;;;;5012571;28;20977;-57
2021/12/28 11:05:42;;;;;;;1.60;1.50;;;;;;;;;;5012169;28;20246;-57
2021/12/28 11:08:08;;;;;;;1.77;1.40;;;;;;;;;;5014608;28;20228;-57
2021/12/28 11:10:35;;;;;;;1.73;1.60;;;;;;;;;;5017644;28;20602;-58
2021/12/28 11:13:01;;;;;;;1.40;1.30;;;;;;;;;;5018064;28;20763;-57
2021/12/28 11:15:27;;;;;;;1.27;1.17;;;;;;;;;;5024279;28;21063;-58
2021/12/28 11:17:53;;;;;;;2.33;1.20;;;;;;;;;;5012438;28;20232;-57
2021/12/28 11:20:31;;;;;;;1.27;1.17;;;;;;;;;;5024498;28;20228;-57
2021/12/28 11:23:10;;;;;;;1.30;1.20;;;;;;;;;;5014221;28;20485;-57
2021/12/28 11:25:36;;;;;;;1.20;1.10;;;;;;;;;;5017034;28;20235;-58
2021/12/28 11:28:21;;;;;;;1.30;1.20;;;;;;;;;;5020025;28;21845;-57
2021/12/28 11:31:04;;;;;;;1.27;1.03;;;;;;;;;;5020469;28;20239;-57
2021/12/28 11:33:49;;;;;;;1.17;1.10;;;;;;;;;;5024610;28;20270;-58
2021/12/28 11:36:15;;;;;;;1.00;1.00;;;;;;;;;;5016718;28;20235;-57
2021/12/28 11:38:41;;;;;;;0.93;0.93;;;;;;;;;;5022916;28;20236;-58
2021/12/28 11:41:07;;;;;;;2.10;1.10;;;;;;;;;;5018790;28;20438;-58
2021/12/28 11:43:34;;;;;;;1.93;1.30;;;;;;;;;;5022033;28;20652;-57
2021/12/28 11:46:00;;;;;;;1.37;1.27;;;;;;;;;;5020695;28;20231;-57
2021/12/28 11:48:26;;;;;;;1.30;1.20;;;;;;;;;;5022775;28;20605;-57
2021/12/28 11:50:53;;;;;;;1.77;1.67;;;;;;;;;;5014757;28;20861;-58
2021/12/28 11:53:19;;;;;;;2.67;1.70;;;;;;;;;;5016942;28;20243;-58
2021/12/28 11:55:45;;;;;;;1.90;1.77;;;;;;;;;;5019946;28;20254;-57
2021/12/28 11:58:11;;;;;;;3.37;2.00;;;;;;;;;;5014549;28;20255;-57
2021/12/28 12:00:38;;;;;;;2.97;2.40;;;;;;;;;;5022188;28;20321;-58
2021/12/28 12:03:04;;;;;;;3.23;2.47;;;;;;;;;;5011929;28;20274;-58
2021/12/28 12:05:30;;;;;;;4.77;2.67;;;;;;;;;;5016376;28;20781;-57
2021/12/28 12:08:11;;;;;;;3.13;2.50;;;;;;;;;;5015863;28;20899;-57
2021/12/28 12:10:37;;;;;;;2.90;2.43;;;;;;;;;;5017822;28;20396;-57
2021/12/28 12:13:05;;;;;;;4.73;3.57;;;;;;;;;;5013946;28;20848;-57
2021/12/28 12:15:38;;;;;;;2.87;2.47;;;;;;;;;;5017191;28;21325;-57
2021/12/28 12:18:04;;;;;;;3.07;2.57;;;;;;;;;;5017433;28;20331;-57
2021/12/28 12:20:33;;;;;;;2.70;2.37;;;;;;;;;;5006945;28;20378;-57
2021/12/28 12:23:08;;;;;;;2.50;2.30;;;;;;;;;;5004877;28;20298;-57
2021/12/28 12:25:46;;;;;;;6.20;2.60;;;;;;;;;;5013201;28;20246;-57
2021/12/28 12:28:12;;;;;;;4.10;2.20;;;;;;;;;;5011973;28;20239;-58
2021/12/28 12:30:41;;;;;;;4.30;2.20;;;;;;;;;;5013352;28;20232;-57
2021/12/28 12:33:08;;;;;;;6.77;2.40;;;;;;;;;;5009687;28;20242;-57
2021/12/28 12:35:41;;;;;;;7.67;2.60;;;;;;;;;;5009104;28;20225;-57
2021/12/28 12:38:10;;;;;;;12.00;3.03;;;;;;;;;;5011357;28;20337;-57
2021/12/28 12:40:51;;;;;;;17.20;3.20;;;;;;;;;;5004204;28;20725;-57
2021/12/28 12:43:17;;;;;;;12.67;4.23;;;;;;;;;;5015861;28;20611;-57
2021/12/28 12:45:52;;;;;;;15.40;3.87;;;;;;;;;;5022586;28;20714;-57
2021/12/28 12:48:37;;;;;;;16.43;3.87;;;;;;;;;;5022202;28;20238;-57
2021/12/28 12:51:24;;;;;;;16.17;3.77;;;;;;;;;;5017000;28;20288;-58
2021/12/28 12:54:00;;;;;;;18.10;3.37;;;;;;;;;;5023758;28;20231;-57
2021/12/28 12:56:27;;;;;;;17.90;4.23;;;;;;;;;;5010803;28;20253;-57
2021/12/28 12:58:54;;;;;;;15.47;4.07;;;;;;;;;;5007019;28;20230;-57
2021/12/28 13:01:22;;;;;;;16.47;4.50;;;;;;;;;;5016132;28;20242;-57
2021/12/28 13:03:48;;;;;;;24.50;4.50;;;;;;;;;;5015633;28;20243;-57
2021/12/28 13:06:14;;;;;;;22.30;4.07;;;;;;;;;;5019864;28;20232;-57
2021/12/28 13:08:40;;;;;;;19.83;3.70;;;;;;;;;;5023456;28;20234;-57
2021/12/28 13:11:06;;;;;;;16.07;3.60;;;;;;;;;;5012473;28;20686;-57
2021/12/28 13:13:32;;;;;;;21.20;4.13;;;;;;;;;;5018540;28;20244;-57
2021/12/28 13:16:06;;;;;;;18.17;4.10;;;;;;;;;;5013233;28;20259;-57
2021/12/28 13:18:32;;;;;;;19.70;4.63;;;;;;;;;;5000165;28;20367;-57
2021/12/28 13:20:58;;;;;;;21.13;4.60;;;;;;;;;;5018574;28;20231;-57
2021/12/28 13:23:24;;;;;;;26.17;5.13;;;;;;;;;;5014217;28;20313;-57
2021/12/28 13:25:50;;;;;;;28.60;5.77;;;;;;;;;;5022658;28;20242;-57
2021/12/28 13:28:19;;;;;;;22.80;5.63;;;;;;;;;;5019937;28;20293;-57
2021/12/28 13:30:45;;;;;;;23.47;4.77;;;;;;;;;;5018005;28;20642;-57
2021/12/28 13:33:11;;;;;;;22.00;6.07;;;;;;;;;;5010648;28;20232;-57
2021/12/28 13:35:39;;;;;;;27.27;5.90;;;;;;;;;;5006410;28;20242;-57
2021/12/28 13:38:07;;;;;;;24.43;6.20;;;;;;;;;;5018551;28;20251;-57
2021/12/28 13:40:41;;;;;;;20.63;5.30;;;;;;;;;;5017740;28;20235;-57
2021/12/28 13:43:25;;;;;;;21.27;5.00;;;;;;;;;;5010984;28;20551;-57
2021/12/28 13:45:53;;;;;;;22.10;5.13;;;;;;;;;;5013068;28;20568;-57
2021/12/28 13:48:20;;;;;;;21.30;5.07;;;;;;;;;;5012409;28;20248;-57
2021/12/28 13:50:50;;;;;;;23.77;5.73;;;;;;;;;;5013841;28;20240;-56
2021/12/28 13:53:17;;;;;;;23.73;6.03;;;;;;;;;;5014105;28;20217;-57
2021/12/28 13:55:43;;;;;;;23.03;5.63;;;;;;;;;;5012688;28;20357;-57
2021/12/28 13:58:45;;;;;;;24.40;5.50;;;;;;;;;;5018757;28;20228;-57
2021/12/28 14:01:15;;;;;;;20.13;4.67;;;;;;;;;;4965760;28;20232;-57
2021/12/28 14:03:41;;;;;;;19.83;4.40;;;;;;;;;;5008344;28;20315;-57
2021/12/28 14:06:07;;;;;;;18.60;4.40;;;;;;;;;;5019708;28;20237;-57
2021/12/28 14:08:33;;;;;;;18.23;4.57;;;;;;;;;;5018255;28;20367;-57
2021/12/28 14:11:00;;;;;;;18.67;4.27;;;;;;;;;;5026069;28;20238;-57
2021/12/28 14:13:26;;;;;;;29.07;4.90;;;;;;;;;;5012334;28;20624;-57
2021/12/28 14:15:52;;;;;;;17.00;3.77;;;;;;;;;;5012855;28;20227;-56
2021/12/28 14:18:45;;;;;;;11.23;2.83;;;;;;;;;;5011617;28;20263;-57
2021/12/28 14:21:22;;;;;;;9.47;3.13;;;;;;;;;;5016363;28;20231;-57
2021/12/28 14:23:57;;;;;;;11.20;3.27;;;;;;;;;;5013313;28;20233;-57
2021/12/28 14:26:25;;;;;;;10.57;3.03;;;;;;;;;;5012301;28;20240;-57
2021/12/28 14:28:55;;;;;;;12.27;3.27;;;;;;;;;;5016625;28;20234;-57
2021/12/28 14:31:21;;;;;;;15.30;4.57;;;;;;;;;;5016485;28;20717;-57
2021/12/28 14:33:52;;;;;;;13.67;3.97;;;;;;;;;;5008897;28;20694;-57
2021/12/28 14:36:18;;;;;;;12.57;3.83;;;;;;;;;;5016037;28;20225;-57